Time;durP1;ratioP1;P1;durP2;ratioP2;P2;SDS_P1;SDS_P2;PMS_P1;PMS_P2;Temp;Humidity;BMP_temperature;BMP_pressure;BME280_temperature;BME280_humidity;BME280_pressure;Samples;Min_cycle;Max_cycle;Signal;HPM_P1;HPM_P2
2024/03/03 00:01:50;;;;;;;0.20;0.10;;;;;;;;;;5034464;28;20582;-88
2024/03/03 00:07:54;;;;;;;0.20;0.00;;;;;;;;;;5022089;23;20058;-77
2024/03/03 00:10:20;;;;;;;0.20;0.10;;;;;;;;;;4997176;28;20065;-77
2024/03/03 00:12:46;;;;;;;0.20;0.08;;;;;;;;;;4997549;28;20045;-77
2024/03/03 00:15:14;;;;;;;0.20;0.03;;;;;;;;;;5013614;28;20045;-78
2024/03/03 00:17:40;;;;;;;0.20;0.10;;;;;;;;;;5009054;28;20132;-76
2024/03/03 00:20:06;;;;;;;0.20;0.10;;;;;;;;;;5035767;28;20034;-76
2024/03/03 00:22:32;;;;;;;0.20;0.10;;;;;;;;;;5036608;28;20041;-76
2024/03/03 00:24:59;;;;;;;0.20;0.00;;;;;;;;;;5031468;28;20045;-77
2024/03/03 00:27:26;;;;;;;0.20;0.08;;;;;;;;;;5029002;28;20337;-76
2024/03/03 00:29:52;;;;;;;0.20;0.00;;;;;;;;;;5034976;28;20454;-76
2024/03/03 00:32:19;;;;;;;0.20;0.10;;;;;;;;;;5033661;28;20052;-77
2024/03/03 00:34:45;;;;;;;0.30;0.20;;;;;;;;;;5033540;28;20456;-77
2024/03/03 00:37:13;;;;;;;0.20;0.00;;;;;;;;;;5030252;28;20050;-76
2024/03/03 00:39:39;;;;;;;0.20;0.10;;;;;;;;;;5034751;28;20037;-77
2024/03/03 00:42:06;;;;;;;0.20;0.10;;;;;;;;;;5013080;28;20112;-77
2024/03/03 00:44:32;;;;;;;0.20;0.10;;;;;;;;;;5027167;28;20033;-77
2024/03/03 00:46:58;;;;;;;0.20;0.00;;;;;;;;;;5029631;28;20048;-77
2024/03/03 00:49:24;;;;;;;0.20;0.00;;;;;;;;;;5017134;28;20042;-76
2024/03/03 00:51:50;;;;;;;0.22;0.20;;;;;;;;;;5018960;28;20041;-77
2024/03/03 00:54:15;;;;;;;0.20;0.00;;;;;;;;;;5033251;28;20052;-77
2024/03/03 00:56:41;;;;;;;0.20;0.10;;;;;;;;;;5035277;28;20583;-77
2024/03/03 00:59:09;;;;;;;0.20;0.10;;;;;;;;;;5035078;28;20269;-77
2024/03/03 01:01:35;;;;;;;0.20;0.10;;;;;;;;;;5017918;28;20541;-77
2024/03/03 01:04:01;;;;;;;0.20;0.00;;;;;;;;;;5018122;28;20033;-77
2024/03/03 01:06:27;;;;;;;0.90;0.68;;;;;;;;;;5033457;28;20033;-76
2024/03/03 01:08:53;;;;;;;0.20;0.10;;;;;;;;;;5036556;28;20480;-77
2024/03/03 01:11:19;;;;;;;0.20;0.17;;;;;;;;;;5033293;28;20054;-77
2024/03/03 01:13:45;;;;;;;0.20;0.10;;;;;;;;;;5036530;28;20037;-77
2024/03/03 01:16:11;;;;;;;0.20;0.10;;;;;;;;;;5035160;28;20037;-76
2024/03/03 01:18:38;;;;;;;0.20;0.10;;;;;;;;;;5037530;28;20097;-77
2024/03/03 01:21:04;;;;;;;0.30;0.20;;;;;;;;;;5037103;28;20049;-76
2024/03/03 01:23:30;;;;;;;0.20;0.00;;;;;;;;;;5038799;28;20045;-76
2024/03/03 01:25:56;;;;;;;0.20;0.10;;;;;;;;;;5021003;28;20040;-77
2024/03/03 01:28:22;;;;;;;0.20;0.13;;;;;;;;;;5014227;28;20037;-76
2024/03/03 01:30:48;;;;;;;0.20;0.03;;;;;;;;;;5012766;28;20049;-77
2024/03/03 01:33:14;;;;;;;0.20;0.05;;;;;;;;;;5035097;28;20045;-77
2024/03/03 01:35:40;;;;;;;0.20;0.10;;;;;;;;;;5037064;28;20387;-77
2024/03/03 01:38:06;;;;;;;0.22;0.10;;;;;;;;;;5034328;28;20029;-77
2024/03/03 01:40:32;;;;;;;0.20;0.00;;;;;;;;;;5019271;28;20069;-77
2024/03/03 01:42:58;;;;;;;0.57;0.32;;;;;;;;;;5036132;28;20037;-77
2024/03/03 01:45:25;;;;;;;0.20;0.00;;;;;;;;;;5031950;28;20135;-77
2024/03/03 01:47:52;;;;;;;0.20;0.10;;;;;;;;;;5033908;28;20064;-78
2024/03/03 01:50:18;;;;;;;0.20;0.08;;;;;;;;;;5033967;28;20033;-77
2024/03/03 01:52:47;;;;;;;0.20;0.10;;;;;;;;;;5031503;28;20247;-76
2024/03/03 01:55:14;;;;;;;0.20;0.10;;;;;;;;;;5033513;28;20137;-76
2024/03/03 01:57:41;;;;;;;0.20;0.10;;;;;;;;;;5035931;28;20040;-77
2024/03/03 02:00:13;;;;;;;0.20;0.05;;;;;;;;;;5016350;28;20454;-77
2024/03/03 02:02:39;;;;;;;0.20;0.10;;;;;;;;;;5012799;28;20056;-77
2024/03/03 02:05:06;;;;;;;0.20;0.10;;;;;;;;;;5042204;28;20128;-77
2024/03/03 02:07:32;;;;;;;0.20;0.10;;;;;;;;;;5041361;28;20041;-76
2024/03/03 02:09:58;;;;;;;0.20;0.13;;;;;;;;;;5017816;28;20294;-77
2024/03/03 02:12:25;;;;;;;0.20;0.00;;;;;;;;;;5033458;28;20037;-77
2024/03/03 02:14:52;;;;;;;0.20;0.10;;;;;;;;;;5022478;28;20049;-77
2024/03/03 02:17:21;;;;;;;0.20;0.08;;;;;;;;;;5038159;28;20029;-77
2024/03/03 02:19:47;;;;;;;0.32;0.25;;;;;;;;;;5022938;28;20084;-77
2024/03/03 02:22:13;;;;;;;0.22;0.10;;;;;;;;;;5017178;28;20071;-77
2024/03/03 02:24:39;;;;;;;0.20;0.10;;;;;;;;;;5031439;28;20045;-77
2024/03/03 02:27:05;;;;;;;0.20;0.00;;;;;;;;;;5035230;28;20109;-76
2024/03/03 02:29:31;;;;;;;0.20;0.10;;;;;;;;;;5031330;28;20043;-77
2024/03/03 02:31:57;;;;;;;0.20;0.10;;;;;;;;;;5035032;28;20049;-77
2024/03/03 02:34:25;;;;;;;0.20;0.13;;;;;;;;;;5032069;28;20201;-76
2024/03/03 02:36:51;;;;;;;0.20;0.13;;;;;;;;;;5011750;28;20112;-77
2024/03/03 02:39:17;;;;;;;0.20;0.10;;;;;;;;;;5034914;28;20065;-77
2024/03/03 02:41:44;;;;;;;3.50;0.77;;;;;;;;;;5036935;28;20505;-77
2024/03/03 02:44:10;;;;;;;1.75;1.30;;;;;;;;;;5033080;28;20041;-76
2024/03/03 02:46:38;;;;;;;0.20;0.10;;;;;;;;;;5013153;28;20048;-77
2024/03/03 02:49:04;;;;;;;0.20;0.05;;;;;;;;;;5031817;28;20042;-78
2024/03/03 02:51:30;;;;;;;0.20;0.08;;;;;;;;;;5022706;28;20072;-77
2024/03/03 02:53:56;;;;;;;0.20;0.10;;;;;;;;;;5023043;28;20034;-78
2024/03/03 02:56:22;;;;;;;0.20;0.00;;;;;;;;;;5037085;28;20401;-78
2024/03/03 02:58:49;;;;;;;0.20;0.10;;;;;;;;;;5035288;28;20453;-77
2024/03/03 03:01:15;;;;;;;0.20;0.20;;;;;;;;;;5032114;28;20037;-77
2024/03/03 03:03:41;;;;;;;0.20;0.00;;;;;;;;;;5035164;28;20040;-76
2024/03/03 03:06:10;;;;;;;0.45;0.35;;;;;;;;;;5031551;28;20500;-77
2024/03/03 03:08:36;;;;;;;0.22;0.13;;;;;;;;;;5032504;28;20041;-78
2024/03/03 03:11:02;;;;;;;0.20;0.08;;;;;;;;;;5034422;28;20064;-78
2024/03/03 03:13:28;;;;;;;0.20;0.00;;;;;;;;;;5019923;28;20032;-78
2024/03/03 03:15:54;;;;;;;0.20;0.10;;;;;;;;;;5021100;28;20061;-77
2024/03/03 03:18:20;;;;;;;0.20;0.10;;;;;;;;;;5032881;28;20156;-77
2024/03/03 03:20:46;;;;;;;0.20;0.10;;;;;;;;;;5014986;28;20049;-77
2024/03/03 03:23:12;;;;;;;0.20;0.00;;;;;;;;;;5033082;28;20059;-77
2024/03/03 03:25:38;;;;;;;0.20;0.10;;;;;;;;;;5024495;28;20076;-77
2024/03/03 03:28:05;;;;;;;0.20;0.10;;;;;;;;;;5022734;28;20045;-77
2024/03/03 03:30:31;;;;;;;0.20;0.00;;;;;;;;;;5024414;28;20041;-78
2024/03/03 03:32:57;;;;;;;0.20;0.20;;;;;;;;;;5038100;28;20498;-76
2024/03/03 03:35:24;;;;;;;0.20;0.00;;;;;;;;;;5015254;28;20255;-77
2024/03/03 03:37:50;;;;;;;0.20;0.20;;;;;;;;;;5032503;28;20448;-77
2024/03/03 03:40:16;;;;;;;0.73;0.20;;;;;;;;;;5019606;28;20097;-77
2024/03/03 03:42:42;;;;;;;0.20;0.20;;;;;;;;;;5033022;28;20037;-77
2024/03/03 03:45:08;;;;;;;0.60;0.38;;;;;;;;;;5032488;28;20052;-76
2024/03/03 03:47:35;;;;;;;0.22;0.22;;;;;;;;;;5035071;28;20037;-77
2024/03/03 03:50:01;;;;;;;0.43;0.28;;;;;;;;;;5034426;28;20166;-77
2024/03/03 03:52:27;;;;;;;0.20;0.10;;;;;;;;;;5016837;28;20056;-78
2024/03/03 03:54:53;;;;;;;0.82;0.20;;;;;;;;;;5018125;28;20072;-77
2024/03/03 03:57:19;;;;;;;0.20;0.00;;;;;;;;;;5035361;28;20052;-77
2024/03/03 03:59:45;;;;;;;0.20;0.10;;;;;;;;;;5034336;28;20033;-78
2024/03/03 04:02:11;;;;;;;0.20;0.05;;;;;;;;;;5033068;28;20038;-77
2024/03/03 04:04:37;;;;;;;0.20;0.10;;;;;;;;;;5020861;28;20564;-77
2024/03/03 04:07:04;;;;;;;0.20;0.00;;;;;;;;;;5034425;28;20047;-77
2024/03/03 04:09:31;;;;;;;0.20;0.20;;;;;;;;;;5033071;28;20041;-77
2024/03/03 04:11:58;;;;;;;0.20;0.10;;;;;;;;;;5035774;28;20132;-79
2024/03/03 04:14:26;;;;;;;0.20;0.03;;;;;;;;;;5020840;28;20041;-79
2024/03/03 04:16:52;;;;;;;0.20;0.00;;;;;;;;;;5037460;28;20440;-77
2024/03/03 04:19:18;;;;;;;0.20;0.13;;;;;;;;;;5037212;28;20050;-77
2024/03/03 04:21:44;;;;;;;0.20;0.00;;;;;;;;;;5035314;28;20049;-77
2024/03/03 04:24:10;;;;;;;0.40;0.40;;;;;;;;;;5018616;28;20704;-77
2024/03/03 04:26:40;;;;;;;0.20;0.10;;;;;;;;;;5038011;28;20073;-77
2024/03/03 04:29:06;;;;;;;0.30;0.10;;;;;;;;;;5019610;28;20421;-77
2024/03/03 04:31:32;;;;;;;0.20;0.00;;;;;;;;;;5035298;28;20072;-76
2024/03/03 04:33:58;;;;;;;0.28;0.15;;;;;;;;;;5022503;28;20926;-77
2024/03/03 04:36:24;;;;;;;0.25;0.22;;;;;;;;;;5021257;28;20534;-78
2024/03/03 04:38:50;;;;;;;0.20;0.00;;;;;;;;;;5040096;28;20033;-78
2024/03/03 04:41:18;;;;;;;0.20;0.10;;;;;;;;;;5022867;28;20048;-78
2024/03/03 04:43:45;;;;;;;0.35;0.35;;;;;;;;;;5035043;28;20128;-77
2024/03/03 04:46:11;;;;;;;0.20;0.20;;;;;;;;;;5034063;28;20469;-78
2024/03/03 04:48:38;;;;;;;0.43;0.43;;;;;;;;;;5036456;28;20096;-77
2024/03/03 04:51:04;;;;;;;0.20;0.10;;;;;;;;;;5020731;28;20037;-78
2024/03/03 04:53:30;;;;;;;0.20;0.00;;;;;;;;;;5021994;28;20042;-77
2024/03/03 04:55:56;;;;;;;0.20;0.10;;;;;;;;;;5037850;28;20048;-78
2024/03/03 04:58:22;;;;;;;0.20;0.00;;;;;;;;;;5021671;28;20045;-78
2024/03/03 05:00:48;;;;;;;0.20;0.10;;;;;;;;;;5039482;28;20041;-77
2024/03/03 05:03:14;;;;;;;0.45;0.45;;;;;;;;;;5034385;28;20045;-77
2024/03/03 05:05:40;;;;;;;0.22;0.13;;;;;;;;;;5020916;28;20044;-77
2024/03/03 05:08:06;;;;;;;0.20;0.15;;;;;;;;;;5037306;28;20048;-77
2024/03/03 05:10:32;;;;;;;0.20;0.20;;;;;;;;;;5037319;28;20048;-77
2024/03/03 05:12:58;;;;;;;0.25;0.10;;;;;;;;;;5018920;28;20034;-77
2024/03/03 05:15:24;;;;;;;0.20;0.10;;;;;;;;;;5019786;28;20045;-78
2024/03/03 05:17:50;;;;;;;0.20;0.10;;;;;;;;;;5036606;28;20037;-77
2024/03/03 05:20:16;;;;;;;0.22;0.20;;;;;;;;;;5036412;28;20034;-77
2024/03/03 05:22:42;;;;;;;0.28;0.08;;;;;;;;;;5021137;28;20047;-77
2024/03/03 05:25:10;;;;;;;0.35;0.35;;;;;;;;;;5036186;28;20112;-77
2024/03/03 05:27:36;;;;;;;0.20;0.10;;;;;;;;;;5022803;28;20389;-78
2024/03/03 05:30:02;;;;;;;0.20;0.10;;;;;;;;;;5036139;28;20061;-77
2024/03/03 05:32:28;;;;;;;0.30;0.22;;;;;;;;;;5037747;28;20038;-77
2024/03/03 05:34:54;;;;;;;0.20;0.10;;;;;;;;;;5039155;28;20031;-77
2024/03/03 05:37:20;;;;;;;0.25;0.22;;;;;;;;;;5035992;28;20450;-77
2024/03/03 05:39:46;;;;;;;0.95;0.22;;;;;;;;;;5038094;28;20033;-77
2024/03/03 05:42:12;;;;;;;0.20;0.20;;;;;;;;;;5019264;28;20517;-78
2024/03/03 05:44:38;;;;;;;0.20;0.10;;;;;;;;;;5036283;28;20113;-77
2024/03/03 05:47:05;;;;;;;0.35;0.30;;;;;;;;;;5017877;28;20048;-77
2024/03/03 05:49:33;;;;;;;0.40;0.28;;;;;;;;;;5020651;28;20042;-77
2024/03/03 05:52:00;;;;;;;0.20;0.20;;;;;;;;;;5035243;28;20037;-76
2024/03/03 05:54:26;;;;;;;0.20;0.17;;;;;;;;;;5035128;28;20120;-77
2024/03/03 05:56:52;;;;;;;0.20;0.00;;;;;;;;;;5035642;28;20053;-77
2024/03/03 05:59:18;;;;;;;0.30;0.20;;;;;;;;;;5035184;28;20041;-77
2024/03/03 06:01:48;;;;;;;0.20;0.00;;;;;;;;;;5019405;28;20076;-77
2024/03/03 06:04:17;;;;;;;0.20;0.00;;;;;;;;;;5020563;28;20041;-77
2024/03/03 06:06:44;;;;;;;0.20;0.10;;;;;;;;;;5032290;22;20052;-82
2024/03/03 06:09:12;;;;;;;0.20;0.10;;;;;;;;;;5045373;28;20105;-81
2024/03/03 06:11:38;;;;;;;0.20;0.05;;;;;;;;;;5039944;28;20047;-81
2024/03/03 06:14:07;;;;;;;0.20;0.00;;;;;;;;;;5029599;28;20076;-82
2024/03/03 06:16:33;;;;;;;0.20;0.10;;;;;;;;;;5042969;28;20473;-81
2024/03/03 06:18:59;;;;;;;0.20;0.05;;;;;;;;;;5040498;28;20037;-81
2024/03/03 06:21:25;;;;;;;0.20;0.10;;;;;;;;;;5045618;28;20036;-81
2024/03/03 06:23:51;;;;;;;0.40;0.20;;;;;;;;;;5027230;28;20481;-81
2024/03/03 06:26:17;;;;;;;0.20;0.03;;;;;;;;;;5042780;28;20044;-81
2024/03/03 06:28:44;;;;;;;0.68;0.47;;;;;;;;;;5041822;28;20040;-81
2024/03/03 06:31:13;;;;;;;0.45;0.45;;;;;;;;;;5040966;28;20417;-81
2024/03/03 06:33:39;;;;;;;0.20;0.10;;;;;;;;;;5041637;28;20527;-80
2024/03/03 06:36:05;;;;;;;0.20;0.00;;;;;;;;;;5041703;28;20060;-80
2024/03/03 06:38:32;;;;;;;0.40;0.35;;;;;;;;;;5043988;28;20192;-79
2024/03/03 06:40:58;;;;;;;1.00;0.90;;;;;;;;;;5032315;28;20048;-80
2024/03/03 06:43:24;;;;;;;0.20;0.17;;;;;;;;;;5033503;28;20043;-78
2024/03/03 06:45:50;;;;;;;0.50;0.38;;;;;;;;;;5041513;28;20451;-78
2024/03/03 06:48:16;;;;;;;0.30;0.10;;;;;;;;;;5031067;28;20105;-79
2024/03/03 06:50:42;;;;;;;0.20;0.08;;;;;;;;;;5032702;28;20050;-80
2024/03/03 06:53:08;;;;;;;0.20;0.08;;;;;;;;;;5026718;28;20106;-80
2024/03/03 06:55:34;;;;;;;0.20;0.10;;;;;;;;;;5046110;28;20127;-79
2024/03/03 06:58:00;;;;;;;0.20;0.10;;;;;;;;;;5045484;28;20406;-79
2024/03/03 07:00:26;;;;;;;0.32;0.32;;;;;;;;;;5046187;28;20028;-80
2024/03/03 07:03:19;;;;;;;0.20;0.10;;;;;;;;;;5028879;28;20050;-81
2024/03/03 07:05:45;;;;;;;0.20;0.10;;;;;;;;;;5024583;28;20045;-79
2024/03/03 07:08:11;;;;;;;0.22;0.20;;;;;;;;;;5044674;28;20064;-78
2024/03/03 07:10:37;;;;;;;0.20;0.10;;;;;;;;;;5044268;28;20064;-79
2024/03/03 07:13:03;;;;;;;0.20;0.10;;;;;;;;;;5041272;28;20505;-79
2024/03/03 07:15:29;;;;;;;0.20;0.10;;;;;;;;;;5043430;28;20036;-80
2024/03/03 07:17:56;;;;;;;0.77;0.77;;;;;;;;;;5046192;28;20094;-81
2024/03/03 07:20:22;;;;;;;0.20;0.10;;;;;;;;;;5029271;28;20677;-80
2024/03/03 07:22:48;;;;;;;0.20;0.03;;;;;;;;;;5042039;28;20036;-81
2024/03/03 07:25:14;;;;;;;0.73;0.73;;;;;;;;;;5044021;28;20047;-79
2024/03/03 07:27:40;;;;;;;0.20;0.00;;;;;;;;;;5039241;28;20115;-79
2024/03/03 07:30:06;;;;;;;0.20;0.00;;;;;;;;;;5029999;28;20062;-80
2024/03/03 07:32:32;;;;;;;0.20;0.10;;;;;;;;;;5048460;28;20040;-80
2024/03/03 07:34:58;;;;;;;0.20;0.10;;;;;;;;;;5045595;28;20148;-80
2024/03/03 07:37:25;;;;;;;0.20;0.10;;;;;;;;;;5035508;28;20119;-79
2024/03/03 07:39:51;;;;;;;0.20;0.10;;;;;;;;;;5043967;28;20126;-80
2024/03/03 07:42:17;;;;;;;0.20;0.10;;;;;;;;;;5045648;28;20040;-79
2024/03/03 07:44:43;;;;;;;0.20;0.03;;;;;;;;;;5028131;28;20055;-80
2024/03/03 07:47:09;;;;;;;0.20;0.10;;;;;;;;;;5028353;28;20036;-80
2024/03/03 07:49:35;;;;;;;0.20;0.10;;;;;;;;;;5028784;28;20067;-81
2024/03/03 07:52:01;;;;;;;0.20;0.05;;;;;;;;;;5020879;28;20095;-81
2024/03/03 07:54:27;;;;;;;0.20;0.10;;;;;;;;;;5025574;28;20044;-80
2024/03/03 07:56:53;;;;;;;0.20;0.10;;;;;;;;;;5044470;28;20040;-81
2024/03/03 07:59:19;;;;;;;0.20;0.10;;;;;;;;;;5027234;28;20036;-79
2024/03/03 08:01:45;;;;;;;0.20;0.10;;;;;;;;;;5028760;28;20175;-81
2024/03/03 08:04:13;;;;;;;0.22;0.15;;;;;;;;;;5021287;28;20496;-79
2024/03/03 08:06:39;;;;;;;0.20;0.10;;;;;;;;;;5030022;28;20072;-78
2024/03/03 08:09:06;;;;;;;0.20;0.10;;;;;;;;;;5045690;28;20041;-78
2024/03/03 08:11:33;;;;;;;0.20;0.05;;;;;;;;;;5026764;28;20098;-80
2024/03/03 08:13:59;;;;;;;0.20;0.08;;;;;;;;;;5046100;28;20487;-78
2024/03/03 08:16:25;;;;;;;0.20;0.20;;;;;;;;;;5047902;28;20051;-79
2024/03/03 08:18:51;;;;;;;0.40;0.38;;;;;;;;;;5032406;28;20032;-80
2024/03/03 08:21:17;;;;;;;0.30;0.20;;;;;;;;;;5028675;28;20469;-81
2024/03/03 08:23:43;;;;;;;0.20;0.03;;;;;;;;;;5030974;28;20355;-80
2024/03/03 08:26:13;;;;;;;0.20;0.15;;;;;;;;;;5044388;28;20137;-81
2024/03/03 08:28:39;;;;;;;0.50;0.50;;;;;;;;;;5047728;28;20131;-79
2024/03/03 08:31:05;;;;;;;0.38;0.30;;;;;;;;;;5031057;28;20148;-80
2024/03/03 08:33:31;;;;;;;0.30;0.30;;;;;;;;;;5030683;28;20043;-80
2024/03/03 08:35:58;;;;;;;0.20;0.20;;;;;;;;;;5051188;28;20048;-80
2024/03/03 08:38:24;;;;;;;0.20;0.10;;;;;;;;;;5031407;28;20044;-79
2024/03/03 08:40:50;;;;;;;0.20;0.20;;;;;;;;;;5044916;28;20051;-77
2024/03/03 08:43:16;;;;;;;0.20;0.00;;;;;;;;;;5047759;28;20052;-78
2024/03/03 08:45:42;;;;;;;0.20;0.00;;;;;;;;;;5026664;28;20520;-81
2024/03/03 08:48:08;;;;;;;0.28;0.20;;;;;;;;;;5028290;28;20036;-79
2024/03/03 08:50:34;;;;;;;0.20;0.00;;;;;;;;;;5032861;28;20042;-80
2024/03/03 08:53:00;;;;;;;0.30;0.30;;;;;;;;;;5045504;28;20112;-80
2024/03/03 08:55:26;;;;;;;0.20;0.10;;;;;;;;;;5046218;28;20036;-79
2024/03/03 08:57:52;;;;;;;0.93;0.65;;;;;;;;;;5041800;28;20472;-83
2024/03/03 09:00:19;;;;;;;0.20;0.00;;;;;;;;;;5023827;28;20043;-81
2024/03/03 09:02:45;;;;;;;0.63;0.40;;;;;;;;;;5045636;28;20124;-81
2024/03/03 09:05:12;;;;;;;0.20;0.20;;;;;;;;;;5033484;28;20052;-81
2024/03/03 09:07:39;;;;;;;0.20;0.10;;;;;;;;;;5033223;28;20051;-82
2024/03/03 09:10:06;;;;;;;0.20;0.10;;;;;;;;;;5047845;28;20041;-83
2024/03/03 09:12:32;;;;;;;0.40;0.30;;;;;;;;;;5043258;28;20106;-82
2024/03/03 09:15:01;;;;;;;0.20;0.10;;;;;;;;;;5045576;28;20036;-82
2024/03/03 09:17:27;;;;;;;0.20;0.00;;;;;;;;;;5029376;28;20042;-83
2024/03/03 09:19:53;;;;;;;0.20;0.20;;;;;;;;;;5031099;28;20044;-80
2024/03/03 09:22:20;;;;;;;0.20;0.10;;;;;;;;;;5029974;28;20523;-83
2024/03/03 09:24:50;;;;;;;0.20;0.10;;;;;;;;;;5034421;28;20141;-85
2024/03/03 09:27:17;;;;;;;0.20;0.08;;;;;;;;;;5027907;28;20130;-83
2024/03/03 09:29:43;;;;;;;0.28;0.28;;;;;;;;;;5023658;28;20405;-84
2024/03/03 09:32:09;;;;;;;0.20;0.00;;;;;;;;;;5024131;28;20047;-82
2024/03/03 09:34:35;;;;;;;0.28;0.17;;;;;;;;;;5022144;28;20496;-83
2024/03/03 09:37:01;;;;;;;0.30;0.20;;;;;;;;;;5043811;28;21248;-83
2024/03/03 09:39:27;;;;;;;0.20;0.03;;;;;;;;;;5043172;28;20037;-82
2024/03/03 09:41:57;;;;;;;0.20;0.10;;;;;;;;;;5040009;28;20079;-84
2024/03/03 09:44:27;;;;;;;0.30;0.20;;;;;;;;;;5040778;28;20101;-83
2024/03/03 09:46:53;;;;;;;0.20;0.10;;;;;;;;;;5040734;28;20784;-83
2024/03/03 09:49:23;;;;;;;0.20;0.00;;;;;;;;;;5043725;28;20524;-84
2024/03/03 09:51:49;;;;;;;0.22;0.22;;;;;;;;;;5047583;28;20036;-83
2024/03/03 09:54:16;;;;;;;0.20;0.10;;;;;;;;;;5045579;28;20123;-83
2024/03/03 09:56:46;;;;;;;0.38;0.13;;;;;;;;;;5044736;28;20032;-83
2024/03/03 09:59:14;;;;;;;0.40;0.28;;;;;;;;;;5027614;28;20039;-82
2024/03/03 10:01:42;;;;;;;0.47;0.38;;;;;;;;;;5044471;28;20036;-83
2024/03/03 10:04:09;;;;;;;0.28;0.28;;;;;;;;;;5042942;28;20032;-83
2024/03/03 10:06:39;;;;;;;0.20;0.10;;;;;;;;;;5036807;28;20751;-83
2024/03/03 10:09:09;;;;;;;0.20;0.00;;;;;;;;;;5024903;28;20124;-82
2024/03/03 10:11:37;;;;;;;0.20;0.00;;;;;;;;;;5027346;28;20040;-82
2024/03/03 10:14:03;;;;;;;0.20;0.17;;;;;;;;;;5040493;28;20051;-84
2024/03/03 10:16:33;;;;;;;0.20;0.20;;;;;;;;;;5044687;28;20071;-83
2024/03/03 10:19:03;;;;;;;0.20;0.10;;;;;;;;;;5044613;28;20087;-84
2024/03/03 10:21:36;;;;;;;0.20;0.10;;;;;;;;;;5027697;28;20072;-83
2024/03/03 10:24:18;;;;;;;0.20;0.10;;;;;;;;;;5040112;28;20504;-83
2024/03/03 10:26:44;;;;;;;1.03;0.57;;;;;;;;;;5045785;28;20107;-84
2024/03/03 10:29:10;;;;;;;0.30;0.13;;;;;;;;;;5026298;28;20049;-83
2024/03/03 10:31:36;;;;;;;0.22;0.13;;;;;;;;;;5046418;28;20043;-83
2024/03/03 10:34:02;;;;;;;0.20;0.10;;;;;;;;;;5028710;28;20041;-83
2024/03/03 10:36:29;;;;;;;0.20;0.10;;;;;;;;;;5038178;28;20496;-82
2024/03/03 10:38:54;;;;;;;0.20;0.10;;;;;;;;;;5027523;28;20174;-83
2024/03/03 10:41:21;;;;;;;0.20;0.20;;;;;;;;;;5027602;28;20293;-86
2024/03/03 10:43:47;;;;;;;0.20;0.15;;;;;;;;;;5040173;28;20056;-84
2024/03/03 10:46:13;;;;;;;0.20;0.10;;;;;;;;;;5017815;28;20041;-84
2024/03/03 10:48:42;;;;;;;0.20;0.10;;;;;;;;;;5042440;28;20359;-84
2024/03/03 10:51:08;;;;;;;0.20;0.10;;;;;;;;;;5038906;28;20036;-83
2024/03/03 10:53:34;;;;;;;0.30;0.20;;;;;;;;;;5025086;28;20040;-83
2024/03/03 10:56:01;;;;;;;0.43;0.15;;;;;;;;;;5025548;28;20389;-84
2024/03/03 10:58:30;;;;;;;0.20;0.10;;;;;;;;;;5023646;28;20284;-85
2024/03/03 11:00:57;;;;;;;0.20;0.10;;;;;;;;;;5026342;28;20113;-83
2024/03/03 11:03:24;;;;;;;1.67;0.95;;;;;;;;;;5041852;28;20089;-82
2024/03/03 11:05:51;;;;;;;0.68;0.30;;;;;;;;;;5026593;28;20131;-83
2024/03/03 11:08:18;;;;;;;0.20;0.10;;;;;;;;;;5037162;28;20131;-82
2024/03/03 11:10:44;;;;;;;0.20;0.10;;;;;;;;;;5023808;28;20574;-83
2024/03/03 11:13:13;;;;;;;0.25;0.20;;;;;;;;;;5041389;28;20044;-84
2024/03/03 11:15:40;;;;;;;0.63;0.63;;;;;;;;;;5024469;28;20044;-84
2024/03/03 11:18:10;;;;;;;0.20;0.20;;;;;;;;;;5024369;28;20044;-84
2024/03/03 11:20:40;;;;;;;0.20;0.05;;;;;;;;;;5033650;28;20036;-82
2024/03/03 11:23:06;;;;;;;0.28;0.17;;;;;;;;;;5026087;28;20040;-84
2024/03/03 11:25:35;;;;;;;0.55;0.50;;;;;;;;;;5044426;28;20028;-86
2024/03/03 11:28:01;;;;;;;0.20;0.08;;;;;;;;;;5027188;28;20496;-85
2024/03/03 11:30:27;;;;;;;0.20;0.15;;;;;;;;;;5038534;28;20036;-84
2024/03/03 11:32:54;;;;;;;0.32;0.32;;;;;;;;;;5038041;28;20056;-87
2024/03/03 11:35:20;;;;;;;0.82;0.08;;;;;;;;;;5025052;28;20048;-86
2024/03/03 11:37:46;;;;;;;0.20;0.08;;;;;;;;;;5027234;28;20032;-82
2024/03/03 11:40:16;;;;;;;0.20;0.05;;;;;;;;;;5025038;28;20037;-83
2024/03/03 11:42:44;;;;;;;0.38;0.32;;;;;;;;;;5023378;28;20401;-83
2024/03/03 11:45:11;;;;;;;0.20;0.10;;;;;;;;;;5022018;28;20129;-84
2024/03/03 11:47:45;;;;;;;0.20;0.10;;;;;;;;;;5043752;28;20044;-83
2024/03/03 11:50:22;;;;;;;0.20;0.10;;;;;;;;;;5039169;28;20040;-85
2024/03/03 11:52:52;;;;;;;0.20;0.10;;;;;;;;;;5026796;28;20036;-84
2024/03/03 11:55:25;;;;;;;0.20;0.10;;;;;;;;;;5028902;28;20500;-84
2024/03/03 11:57:52;;;;;;;0.75;0.35;;;;;;;;;;5023730;28;20040;-84
2024/03/03 12:00:27;;;;;;;0.20;0.10;;;;;;;;;;5021405;28;20037;-84
2024/03/03 12:02:54;;;;;;;0.30;0.25;;;;;;;;;;5035938;28;20063;-83
2024/03/03 12:05:20;;;;;;;0.45;0.45;;;;;;;;;;5041392;28;20544;-83
2024/03/03 12:07:48;;;;;;;0.25;0.22;;;;;;;;;;5061297;23;20043;-78
2024/03/03 12:10:15;;;;;;;0.20;0.10;;;;;;;;;;5052124;28;20126;-80
2024/03/03 12:12:41;;;;;;;0.38;0.15;;;;;;;;;;5048859;28;20467;-81
2024/03/03 12:15:08;;;;;;;0.20;0.10;;;;;;;;;;5051693;28;20040;-80
2024/03/03 12:17:35;;;;;;;0.85;0.43;;;;;;;;;;5062686;28;20041;-81
2024/03/03 12:20:05;;;;;;;0.20;0.00;;;;;;;;;;5044382;28;20044;-81
2024/03/03 12:22:31;;;;;;;0.30;0.25;;;;;;;;;;5039775;28;20379;-84
2024/03/03 12:24:58;;;;;;;0.20;0.10;;;;;;;;;;5021592;28;20032;-80
2024/03/03 12:27:24;;;;;;;0.25;0.22;;;;;;;;;;5036654;28;20037;-81
2024/03/03 12:30:02;;;;;;;1.40;0.25;;;;;;;;;;5057369;28;20044;-81
2024/03/03 12:32:28;;;;;;;0.45;0.40;;;;;;;;;;5026729;28;20048;-81
2024/03/03 12:34:58;;;;;;;0.40;0.20;;;;;;;;;;5026505;28;20043;-81
2024/03/03 12:37:25;;;;;;;0.90;0.17;;;;;;;;;;5029276;28;20123;-81
2024/03/03 12:39:52;;;;;;;0.20;0.10;;;;;;;;;;5031616;28;20041;-82
2024/03/03 12:42:19;;;;;;;0.20;0.10;;;;;;;;;;5043741;28;20082;-81
2024/03/03 12:44:45;;;;;;;0.25;0.25;;;;;;;;;;5049444;28;20041;-80
2024/03/03 12:47:14;;;;;;;0.43;0.43;;;;;;;;;;5040535;28;20132;-81
2024/03/03 12:49:44;;;;;;;0.20;0.20;;;;;;;;;;5068850;28;20045;-80
2024/03/03 12:52:11;;;;;;;0.30;0.10;;;;;;;;;;5053641;28;20044;-80
2024/03/03 12:54:39;;;;;;;0.20;0.10;;;;;;;;;;5036975;28;20071;-80
2024/03/03 12:57:06;;;;;;;2.10;0.40;;;;;;;;;;5066967;28;20106;-81
2024/03/03 12:59:33;;;;;;;0.25;0.25;;;;;;;;;;5054951;28;20036;-81
2024/03/03 13:02:00;;;;;;;0.20;0.10;;;;;;;;;;5054803;28;20067;-81
2024/03/03 13:04:32;;;;;;;0.40;0.35;;;;;;;;;;5058365;28;20040;-81
2024/03/03 13:07:00;;;;;;;0.20;0.10;;;;;;;;;;5070482;28;20460;-84
2024/03/03 13:09:29;;;;;;;0.30;0.30;;;;;;;;;;5038623;28;20041;-82
2024/03/03 13:11:56;;;;;;;0.45;0.40;;;;;;;;;;5056222;28;20077;-80
2024/03/03 13:14:23;;;;;;;0.25;0.08;;;;;;;;;;5052056;28;20036;-80
2024/03/03 13:17:08;;;;;;;0.30;0.15;;;;;;;;;;5077437;28;20046;-79
2024/03/03 13:19:47;;;;;;;0.28;0.25;;;;;;;;;;5050671;28;20039;-80
2024/03/03 13:22:20;;;;;;;0.52;0.30;;;;;;;;;;5039863;28;20052;-80
2024/03/03 13:24:53;;;;;;;0.20;0.10;;;;;;;;;;5036175;28;20048;-81
2024/03/03 13:27:19;;;;;;;0.22;0.22;;;;;;;;;;5045579;28;20045;-80
2024/03/03 13:29:46;;;;;;;0.20;0.10;;;;;;;;;;5065499;28;20041;-80
2024/03/03 13:32:12;;;;;;;0.20;0.00;;;;;;;;;;5050125;28;20063;-80
2024/03/03 13:34:40;;;;;;;0.20;0.20;;;;;;;;;;5038754;28;20736;-81
2024/03/03 13:37:07;;;;;;;1.38;0.30;;;;;;;;;;5034383;28;20098;-80
2024/03/03 13:39:33;;;;;;;0.20;0.00;;;;;;;;;;5066260;28;20037;-83
2024/03/03 13:41:59;;;;;;;0.50;0.50;;;;;;;;;;5048165;28;20108;-83
2024/03/03 13:44:25;;;;;;;1.75;0.30;;;;;;;;;;5030767;28;20628;-83
2024/03/03 13:46:51;;;;;;;0.50;0.50;;;;;;;;;;5060189;28;20044;-82
2024/03/03 13:49:17;;;;;;;0.20;0.10;;;;;;;;;;5032798;28;20068;-81
2024/03/03 13:51:43;;;;;;;0.20;0.10;;;;;;;;;;5032234;28;20438;-83
2024/03/03 13:54:12;;;;;;;0.20;0.10;;;;;;;;;;5032461;28;20127;-83
2024/03/03 13:56:41;;;;;;;0.20;0.10;;;;;;;;;;5057938;28;20323;-83
2024/03/03 13:59:09;;;;;;;0.25;0.25;;;;;;;;;;5071470;28;20029;-82
2024/03/03 14:01:36;;;;;;;0.73;0.30;;;;;;;;;;5032745;28;20437;-84
2024/03/03 14:04:02;;;;;;;0.20;0.10;;;;;;;;;;5071367;28;20040;-82
2024/03/03 14:06:29;;;;;;;0.82;0.80;;;;;;;;;;5039946;28;21234;-83
2024/03/03 14:08:55;;;;;;;0.20;0.10;;;;;;;;;;5039161;28;20040;-81
2024/03/03 14:11:21;;;;;;;0.75;0.45;;;;;;;;;;5042801;28;20064;-82
2024/03/03 14:13:47;;;;;;;0.20;0.10;;;;;;;;;;5043850;28;20048;-84
2024/03/03 14:16:13;;;;;;;0.45;0.43;;;;;;;;;;5023718;28;20041;-82
2024/03/03 14:18:40;;;;;;;0.20;0.00;;;;;;;;;;5026118;28;20493;-82
2024/03/03 14:21:06;;;;;;;0.30;0.28;;;;;;;;;;5029000;28;20033;-81
2024/03/03 14:23:32;;;;;;;0.40;0.20;;;;;;;;;;5026073;28;20080;-82
2024/03/03 14:26:00;;;;;;;0.20;0.00;;;;;;;;;;5036860;28;20524;-81
2024/03/03 14:28:27;;;;;;;0.45;0.43;;;;;;;;;;5026199;28;20068;-82
2024/03/03 14:30:53;;;;;;;2.42;0.32;;;;;;;;;;5033100;28;20047;-83
2024/03/03 14:33:19;;;;;;;0.77;0.45;;;;;;;;;;5046615;28;20079;-82
2024/03/03 14:35:45;;;;;;;0.52;0.43;;;;;;;;;;5025049;28;20319;-81
2024/03/03 14:38:11;;;;;;;0.20;0.10;;;;;;;;;;5033578;28;20044;-82
2024/03/03 14:40:38;;;;;;;0.73;0.40;;;;;;;;;;5032664;28;20050;-82
2024/03/03 14:43:04;;;;;;;0.20;0.10;;;;;;;;;;5029218;28;20119;-82
2024/03/03 14:45:33;;;;;;;0.45;0.45;;;;;;;;;;5027327;28;20790;-82